Time;durP1;ratioP1;P1;durP2;ratioP2;P2;SDS_P1;SDS_P2;PMS_P1;PMS_P2;Temp;Humidity;BMP_temperature;BMP_pressure;BME280_temperature;BME280_humidity;BME280_pressure;Samples;Min_cycle;Max_cycle;Signal;HPM_P1;HPM_P2
2022/06/02 00:01:29;;;;;;;;;10.00;10.00;;;;;22.27;50.52;100778.33;110442;1261;19452;-48
2022/06/02 00:03:56;;;;;;;;;10.00;10.00;;;;;22.26;50.59;100784.31;110468;1261;21625;-48
2022/06/02 00:06:23;;;;;;;;;13.00;12.00;;;;;22.25;50.75;100790.44;110593;1259;19236;-47
2022/06/02 00:08:50;;;;;;;;;10.67;10.00;;;;;22.26;50.60;100796.95;110558;1258;23055;-47
2022/06/02 00:11:18;;;;;;;;;11.33;11.33;;;;;22.24;50.60;100792.02;110480;1259;20376;-47
2022/06/02 00:13:45;;;;;;;;;11.33;10.67;;;;;22.23;50.50;100791.73;110459;1260;23080;-48
2022/06/02 00:16:12;;;;;;;;;12.67;12.00;;;;;22.24;50.51;100792.39;110484;1259;19835;-47
2022/06/02 00:18:40;;;;;;;;;10.00;9.33;;;;;22.23;50.57;100789.42;110577;1259;21089;-49
2022/06/02 00:21:08;;;;;;;;;12.00;10.00;;;;;22.23;50.47;100787.75;110608;1258;19329;-48
2022/06/02 00:23:35;;;;;;;;;10.00;9.33;;;;;22.22;50.57;100788.23;110550;1259;19665;-48
2022/06/02 00:26:02;;;;;;;;;9.50;9.50;;;;;22.22;50.57;100779.71;110515;1259;23129;-50
2022/06/02 00:28:29;;;;;;;;;11.00;10.00;;;;;22.22;50.69;100771.14;110493;1259;19307;-48
2022/06/02 00:30:56;;;;;;;;;9.00;9.00;;;;;22.22;50.69;100772.02;110447;1258;21023;-48
2022/06/02 00:33:24;;;;;;;;;10.00;10.00;;;;;22.24;50.36;100787.17;110578;1259;20414;-47
2022/06/02 00:35:51;;;;;;;;;10.33;9.67;;;;;22.24;50.31;100802.06;110588;1259;23837;-48
2022/06/02 00:38:18;;;;;;;;;12.00;9.33;;;;;22.24;50.41;100803.83;110596;1259;22218;-47
2022/06/02 00:40:45;;;;;;;;;12.00;11.00;;;;;22.26;50.29;100805.48;110580;1259;20413;-50
2022/06/02 00:43:13;;;;;;;;;12.00;10.67;;;;;22.24;50.30;100802.20;110451;1260;24537;-49
2022/06/02 00:45:40;;;;;;;;;10.00;10.00;;;;;22.25;50.35;100797.20;110613;1259;19974;-49
2022/06/02 00:48:07;;;;;;;;;10.67;10.67;;;;;22.25;50.25;100789.51;110602;1258;20171;-48
2022/06/02 00:50:35;;;;;;;;;10.00;10.00;;;;;22.25;50.18;100789.39;110592;1258;19188;-48
2022/06/02 00:53:02;;;;;;;;;13.00;11.00;;;;;22.23;50.32;100787.95;110460;1261;19561;-49
2022/06/02 00:58:15;;;;;;;;;13.67;12.33;;;;;22.24;50.35;100820.41;110604;1259;19178;-48
2022/06/02 01:00:42;;;;;;;;;12.33;12.00;;;;;22.25;50.27;100815.63;110546;1259;23026;-48
2022/06/02 01:03:09;;;;;;;;;12.33;12.00;;;;;22.24;50.16;100808.02;110488;1259;20280;-48
2022/06/02 01:05:37;;;;;;;;;10.00;10.00;;;;;22.24;50.02;100804.47;110581;1258;20148;-48
2022/06/02 01:08:04;;;;;;;;;9.33;9.33;;;;;22.23;50.25;100796.15;110598;1258;19573;-49
2022/06/02 01:10:31;;;;;;;;;11.33;10.00;;;;;22.23;50.26;100794.31;110477;1261;23630;-48
2022/06/02 01:12:58;;;;;;;;;12.00;10.00;;;;;22.22;50.09;100794.20;110473;1260;19202;-47
2022/06/02 01:15:26;;;;;;;;;11.33;9.00;;;;;22.22;50.16;100798.06;110636;1259;23018;-48
2022/06/02 01:17:53;;;;;;;;;13.00;11.33;;;;;22.22;50.18;100796.05;110593;1258;20251;-49
2022/06/02 01:20:21;;;;;;;;;10.00;10.00;;;;;22.22;50.16;100807.35;110565;1258;23100;-50
2022/06/02 01:22:49;;;;;;;;;12.50;12.50;;;;;22.22;50.06;100814.52;110464;1261;24012;-47
2022/06/02 01:25:16;;;;;;;;;12.00;11.33;;;;;22.23;50.27;100816.42;110451;1261;20470;-47
2022/06/02 01:27:43;;;;;;;;;10.00;10.00;;;;;22.21;50.18;100827.66;110611;1257;22393;-46
2022/06/02 01:30:10;;;;;;;;;12.00;12.00;;;;;22.21;50.20;100836.95;110639;1258;21095;-48
2022/06/02 01:32:38;;;;;;;;;10.67;10.00;;;;;22.21;50.01;100839.51;110475;1260;20404;-47
2022/06/02 01:35:05;;;;;;;;;9.00;9.00;;;;;22.21;49.99;100838.45;110461;1259;23822;-49
2022/06/02 01:37:32;;;;;;;;;13.00;12.00;;;;;22.22;50.04;100838.72;110609;1258;19464;-48
2022/06/02 01:39:59;;;;;;;;;11.33;10.00;;;;;22.21;50.02;100838.32;110408;1261;20379;-48
2022/06/02 01:42:27;;;;;;;;;11.33;10.00;;;;;22.22;50.25;100838.75;110606;1258;19217;-50
2022/06/02 01:44:56;;;;;;;;;10.00;10.00;;;;;22.21;49.94;100832.23;110591;1257;19594;-48
2022/06/02 01:47:24;;;;;;;;;10.00;10.00;;;;;22.22;49.88;100829.26;110453;1261;21248;-48
2022/06/02 01:49:51;;;;;;;;;11.33;9.33;;;;;22.22;49.88;100821.95;110451;1261;19367;-49
2022/06/02 01:52:18;;;;;;;;;9.33;9.00;;;;;22.21;50.00;100824.46;110575;1258;22992;-47
2022/06/02 01:54:45;;;;;;;;;10.00;10.00;;;;;22.22;50.13;100815.45;110612;1258;20450;-48
2022/06/02 01:57:12;;;;;;;;;10.33;10.33;;;;;22.21;50.03;100816.74;110645;1258;19744;-48
2022/06/02 01:59:40;;;;;;;;;11.33;10.67;;;;;22.20;49.95;100818.75;110473;1261;19838;-48
2022/06/02 02:02:07;;;;;;;;;12.00;12.00;;;;;22.21;49.95;100818.45;110451;1259;20865;-44
2022/06/02 02:04:34;;;;;;;;;10.00;10.00;;;;;22.20;49.84;100816.76;110438;1260;22956;-48
2022/06/02 02:07:01;;;;;;;;;12.33;9.00;;;;;22.20;49.88;100817.02;110425;1260;20859;-48
2022/06/02 02:09:28;;;;;;;;;9.00;9.00;;;;;22.21;50.00;100815.35;110443;1260;20604;-49
2022/06/02 02:11:56;;;;;;;;;13.00;13.00;;;;;22.20;50.00;100814.92;110433;1261;19244;-52
2022/06/02 02:14:23;;;;;;;;;10.00;10.00;;;;;22.20;49.83;100806.73;110455;1259;33906;-52
2022/06/02 02:16:50;;;;;;;;;12.00;9.00;;;;;22.20;49.91;100796.02;110390;1260;20385;-47
2022/06/02 02:19:17;;;;;;;;;12.00;10.00;;;;;22.20;49.86;100794.34;110473;1260;24030;-48
2022/06/02 02:21:44;;;;;;;;;12.00;12.00;;;;;22.20;49.85;100794.92;110453;1261;19514;-48
2022/06/02 02:24:12;;;;;;;;;9.00;9.00;;;;;22.21;49.94;100803.03;110503;1260;21681;-48
2022/06/02 02:26:39;;;;;;;;;12.00;10.00;;;;;22.22;49.84;100807.59;110474;1260;23463;-47
2022/06/02 02:29:06;;;;;;;;;10.00;10.00;;;;;22.20;49.95;100802.83;110462;1260;19470;-48
2022/06/02 02:31:33;;;;;;;;;10.67;10.00;;;;;22.20;50.03;100795.05;110439;1260;22723;-49
2022/06/02 02:34:01;;;;;;;;;10.67;10.00;;;;;22.18;50.00;100790.91;110479;1260;23476;-49
2022/06/02 02:36:28;;;;;;;;;11.00;10.00;;;;;22.21;49.88;100804.09;110467;1260;20989;-48
2022/06/02 02:38:56;;;;;;;;;10.00;9.33;;;;;22.20;49.76;100805.81;110464;1260;23167;-49
2022/06/02 02:41:23;;;;;;;;;12.00;10.00;;;;;22.21;49.95;100812.20;110463;1260;20282;-49
2022/06/02 02:43:50;;;;;;;;;11.33;11.33;;;;;22.20;49.84;100820.21;110452;1260;19659;-48
2022/06/02 02:46:17;;;;;;;;;9.67;9.67;;;;;22.20;49.82;100820.72;110464;1261;20439;-48
2022/06/02 02:48:44;;;;;;;;;12.00;11.33;;;;;22.21;49.74;100824.30;110447;1259;21449;-48
2022/06/02 02:51:12;;;;;;;;;9.00;9.00;;;;;22.20;49.65;100826.89;110501;1261;19827;-48
2022/06/02 02:53:39;;;;;;;;;12.00;12.00;;;;;22.21;49.75;100826.64;110452;1259;21972;-47
2022/06/02 02:56:06;;;;;;;;;10.00;9.67;;;;;22.20;49.82;100822.19;110469;1259;19234;-48
2022/06/02 02:58:33;;;;;;;;;13.00;12.00;;;;;22.20;49.64;100822.56;110439;1260;19480;-48
2022/06/02 03:01:01;;;;;;;;;10.00;10.00;;;;;22.20;49.56;100825.97;110453;1260;21078;-50
2022/06/02 03:03:28;;;;;;;;;10.00;10.00;;;;;22.20;49.79;100831.34;110507;1259;23461;-48
2022/06/02 03:05:56;;;;;;;;;9.67;9.33;;;;;22.20;49.60;100833.11;110555;1258;19599;-49
2022/06/02 03:08:23;;;;;;;;;12.00;12.00;;;;;22.20;49.50;100833.65;110597;1258;20357;-48
2022/06/02 03:10:50;;;;;;;;;11.00;10.00;;;;;22.20;49.70;100830.00;110519;1259;19104;-47
2022/06/02 03:13:18;;;;;;;;;12.33;12.00;;;;;22.20;49.47;100841.09;110621;1259;19553;-48
2022/06/02 03:15:45;;;;;;;;;12.50;10.00;;;;;22.22;49.57;100849.13;110585;1259;20432;-48
2022/06/02 03:18:12;;;;;;;;;10.00;10.00;;;;;22.20;49.47;100847.98;110629;1259;21058;-47
2022/06/02 03:20:39;;;;;;;;;12.33;11.33;;;;;22.20;49.34;100848.94;110472;1261;19565;-48
2022/06/02 03:23:07;;;;;;;;;10.00;10.00;;;;;22.20;49.40;100849.11;110472;1261;21931;-48
2022/06/02 03:25:34;;;;;;;;;11.33;10.00;;;;;22.20;49.43;100853.65;110573;1259;19284;-51
2022/06/02 03:28:01;;;;;;;;;10.00;10.00;;;;;22.20;49.43;100853.35;110634;1259;22014;-54
2022/06/02 03:30:29;;;;;;;;;12.00;12.00;;;;;22.20;49.57;100856.84;110589;1258;20403;-50
2022/06/02 03:32:56;;;;;;;;;10.00;10.00;;;;;22.19;49.67;100857.66;110477;1259;23088;-44
2022/06/02 03:35:23;;;;;;;;;13.33;12.67;;;;;22.19;49.55;100856.12;110475;1260;19569;-49
2022/06/02 03:37:50;;;;;;;;;10.00;10.00;;;;;22.19;49.42;100852.50;110427;1261;23498;-48
2022/06/02 03:40:17;;;;;;;;;10.00;10.00;;;;;22.19;49.55;100856.23;110519;1259;19116;-49
2022/06/02 03:42:45;;;;;;;;;14.00;13.00;;;;;22.19;49.49;100859.64;110596;1257;19579;-47
2022/06/02 03:45:12;;;;;;;;;10.00;9.00;;;;;22.19;49.30;100860.23;110647;1259;21843;-48
2022/06/02 03:47:39;;;;;;;;;13.00;13.00;;;;;22.19;49.32;100861.79;110583;1258;19251;-47
2022/06/02 03:50:06;;;;;;;;;13.67;12.67;;;;;22.20;49.40;100863.55;110451;1260;22034;-48
2022/06/02 03:52:34;;;;;;;;;10.00;10.00;;;;;22.20;49.33;100865.19;110416;1259;20588;-48
2022/06/02 03:55:01;;;;;;;;;9.00;9.00;;;;;22.18;49.33;100874.45;110446;1261;23583;-48
2022/06/02 03:57:28;;;;;;;;;12.00;10.00;;;;;22.18;49.44;100877.73;110577;1258;19459;-47
2022/06/02 03:59:55;;;;;;;;;10.00;10.00;;;;;22.19;49.36;100880.26;110556;1258;20466;-47
2022/06/02 04:02:22;;;;;;;;;13.00;13.00;;;;;22.18;49.36;100879.23;110452;1261;19387;-48
2022/06/02 04:04:50;;;;;;;;;10.00;10.00;;;;;22.18;49.44;100871.96;110426;1261;21677;-48
2022/06/02 04:07:17;;;;;;;;;12.67;12.00;;;;;22.19;49.35;100868.95;110443;1259;20263;-48
2022/06/02 04:09:44;;;;;;;;;10.00;9.00;;;;;22.17;49.38;100870.23;110509;1259;22303;-48
2022/06/02 04:14:56;;;;;;;;;13.00;13.00;;;;;22.19;49.52;100884.17;110465;1259;21890;-48
2022/06/02 04:17:26;;;;;;;;;12.00;12.00;;;;;22.20;49.27;100887.95;110475;1261;19491;-47
2022/06/02 04:22:38;;;;;;;;;10.00;10.00;;;;;22.22;49.32;100886.98;110442;1260;20432;-50
2022/06/02 04:25:07;;;;;;;;;12.00;12.00;;;;;22.22;49.09;100881.30;110446;1260;19105;-48
2022/06/02 04:27:34;;;;;;;;;12.33;12.33;;;;;22.22;49.28;100883.66;110476;1261;19717;-49
2022/06/02 04:30:01;;;;;;;;;12.00;12.00;;;;;22.22;49.22;100890.04;110476;1261;20281;-48
2022/06/02 04:32:28;;;;;;;;;14.00;13.00;;;;;22.22;49.28;100894.33;110471;1260;19261;-44
2022/06/02 04:34:55;;;;;;;;;12.00;12.00;;;;;22.22;49.27;100893.08;110449;1261;21423;-47
2022/06/02 04:37:23;;;;;;;;;12.00;11.33;;;;;22.23;49.25;100895.73;110451;1261;20409;-48
2022/06/02 04:39:50;;;;;;;;;11.33;11.33;;;;;22.22;49.29;100896.56;110459;1260;23143;-49
2022/06/02 04:42:17;;;;;;;;;12.50;12.50;;;;;22.22;49.15;100896.39;110500;1260;20216;-47
2022/06/02 04:44:45;;;;;;;;;12.00;10.00;;;;;22.22;49.39;100895.27;110441;1259;20606;-49
2022/06/02 04:47:12;;;;;;;;;12.00;12.00;;;;;22.23;49.21;100900.85;110460;1259;20271;-47
2022/06/02 04:49:41;;;;;;;;;13.00;12.67;;;;;22.22;49.38;100898.61;110454;1259;21499;-48
2022/06/02 04:52:10;;;;;;;;;14.00;12.67;;;;;22.23;49.25;100900.23;110468;1259;20453;-49
2022/06/02 04:54:38;;;;;;;;;12.00;11.33;;;;;22.22;49.21;100894.93;110501;1261;19257;-49
2022/06/02 04:57:05;;;;;;;;;12.33;12.33;;;;;22.22;49.38;100899.45;110501;1260;20736;-49
2022/06/02 04:59:32;;;;;;;;;10.67;10.00;;;;;22.23;49.33;100901.89;110434;1260;20398;-49
2022/06/02 05:01:59;;;;;;;;;12.00;12.00;;;;;22.22;49.44;100905.54;110405;1261;19388;-47
2022/06/02 05:04:27;;;;;;;;;14.00;13.00;;;;;22.22;49.31;100913.52;110453;1259;22572;-49
2022/06/02 05:06:55;;;;;;;;;12.00;10.67;;;;;22.22;49.30;100919.08;110585;1258;20422;-52
2022/06/02 05:09:23;;;;;;;;;11.33;11.33;;;;;22.23;49.56;100921.98;110615;1259;20927;-49
2022/06/02 05:11:50;;;;;;;;;13.67;12.00;;;;;22.23;49.42;100926.35;110581;1258;19567;-48
2022/06/02 05:14:17;;;;;;;;;13.00;12.00;;;;;22.22;49.49;100926.55;110552;1258;22409;-48
2022/06/02 05:16:44;;;;;;;;;13.00;12.00;;;;;22.21;49.36;100927.25;110565;1259;19331;-50
2022/06/02 05:19:11;;;;;;;;;11.33;10.00;;;;;22.20;49.48;100933.23;110558;1259;19860;-50
2022/06/02 05:21:39;;;;;;;;;14.00;12.50;;;;;22.20;49.46;100941.94;110481;1259;20409;-49
2022/06/02 05:24:06;;;;;;;;;12.00;12.00;;;;;22.20;49.49;100946.77;110573;1258;19448;-49
2022/06/02 05:26:33;;;;;;;;;10.00;10.00;;;;;22.20;49.60;100953.02;110375;1259;28260;-47
2022/06/02 05:29:00;;;;;;;;;11.33;11.33;;;;;22.20;49.42;100949.66;110547;1259;23129;-49
2022/06/02 05:31:28;;;;;;;;;13.00;12.00;;;;;22.19;49.42;100943.14;110544;1258;21100;-49
2022/06/02 05:33:55;;;;;;;;;12.33;10.00;;;;;22.20;49.52;100947.44;110552;1259;19858;-49
2022/06/02 05:36:22;;;;;;;;;12.33;12.33;;;;;22.19;49.56;100956.80;110572;1259;20265;-49
2022/06/02 05:38:50;;;;;;;;;13.00;13.00;;;;;22.19;49.65;100955.53;110537;1259;23549;-49
2022/06/02 05:41:17;;;;;;;;;13.00;12.00;;;;;22.20;49.48;100954.95;110348;1259;283333;-52
2022/06/02 05:43:44;;;;;;;;;11.33;10.00;;;;;22.20;49.48;100968.77;110462;1261;20343;-48
2022/06/02 05:46:11;;;;;;;;;14.00;12.67;;;;;22.20;49.45;100972.52;110404;1261;19492;-48
2022/06/02 05:48:38;;;;;;;;;10.33;9.33;;;;;22.19;49.52;100971.73;110564;1258;19808;-49
2022/06/02 05:51:06;;;;;;;;;12.00;12.00;;;;;22.19;49.51;100978.98;110562;1258;23317;-48
2022/06/02 05:53:33;;;;;;;;;13.00;13.00;;;;;22.22;49.49;100987.21;110399;1261;19183;-45
2022/06/02 05:56:03;;;;;;;;;11.33;10.00;;;;;22.28;49.84;100992.55;110479;1261;19172;-47
2022/06/02 05:58:30;;;;;;;;;13.67;13.00;;;;;22.30;49.93;100991.36;110467;1259;24720;-49
2022/06/02 06:00:57;;;;;;;;;14.00;13.00;;;;;22.26;49.64;100988.05;110531;1258;19250;-47
2022/06/02 06:03:25;;;;;;;;;20.00;18.00;;;;;22.21;50.52;100989.20;110603;1259;19976;-47
2022/06/02 06:05:52;;;;;;;;;20.33;17.33;;;;;22.11;50.02;100993.24;110526;1259;20614;-48
2022/06/02 06:08:20;;;;;;;;;17.67;17.67;;;;;22.07;49.51;100997.30;110436;1260;19314;-48
2022/06/02 06:10:47;;;;;;;;;21.00;20.00;;;;;22.02;49.41;100996.78;110543;1258;19434;-52
2022/06/02 06:13:14;;;;;;;;;20.00;17.33;;;;;21.88;49.31;100993.21;110425;1261;21075;-50
2022/06/02 06:15:41;;;;;;;;;17.00;17.00;;;;;21.78;49.45;100987.44;110567;1258;19703;-49
2022/06/02 06:18:09;;;;;;;;;19.67;17.33;;;;;21.78;50.33;100981.92;110627;1258;23340;-49
2022/06/02 06:20:36;;;;;;;;;17.67;17.00;;;;;21.82;50.90;100981.54;110446;1260;21065;-47
2022/06/02 06:23:03;;;;;;;;;19.00;17.00;;;;;21.86;50.71;100987.00;110406;1260;19274;-49
2022/06/02 06:25:31;;;;;;;;;18.33;17.00;;;;;21.87;50.63;100994.34;110531;1259;19720;-49
2022/06/02 06:27:58;;;;;;;;;20.33;18.00;;;;;21.89;50.39;100996.89;110449;1258;20336;-49
2022/06/02 06:30:25;;;;;;;;;20.00;17.00;;;;;21.90;50.18;100993.89;110581;1259;23052;-49
2022/06/02 06:32:53;;;;;;;;;17.00;16.00;;;;;21.93;49.95;100997.74;110581;1258;19704;-50
2022/06/02 06:35:20;;;;;;;;;18.33;17.00;;;;;21.98;49.86;101001.81;110350;1260;24893;-49
2022/06/02 06:37:48;;;;;;;;;18.00;16.67;;;;;22.07;50.16;101012.25;110439;1260;19302;-50
2022/06/02 06:40:16;;;;;;;;;16.67;16.33;;;;;22.11;49.86;101012.89;110554;1258;23197;-48
2022/06/02 06:42:43;;;;;;;;;19.00;17.00;;;;;22.12;49.57;101020.63;111004;1258;20369;-48
2022/06/02 06:45:10;;;;;;;;;17.33;16.67;;;;;22.09;49.62;101017.95;110592;1258;19240;-48
2022/06/02 06:47:37;;;;;;;;;19.00;17.50;;;;;22.12;49.74;101016.73;110580;1259;21001;-47
2022/06/02 06:50:05;;;;;;;;;18.33;17.33;;;;;22.11;49.65;101025.59;110447;1260;20328;-48
2022/06/02 06:52:32;;;;;;;;;17.00;16.00;;;;;22.12;49.44;101024.43;110470;1261;22495;-49
2022/06/02 06:55:00;;;;;;;;;16.33;16.00;;;;;22.13;49.69;101019.35;110597;1258;19816;-49
2022/06/02 06:57:27;;;;;;;;;17.00;16.00;;;;;22.13;49.72;101021.21;110613;1259;20148;-49
2022/06/02 06:59:54;;;;;;;;;17.67;17.00;;;;;22.14;49.69;101029.07;110565;1259;19965;-49
2022/06/02 07:02:21;;;;;;;;;14.67;13.00;;;;;22.16;49.68;101027.00;110509;1259;23893;-50
2022/06/02 07:04:49;;;;;;;;;14.00;14.00;;;;;22.17;49.97;101026.77;110410;1261;20476;-52
2022/06/02 07:07:16;;;;;;;;;14.00;14.00;;;;;22.21;50.06;101019.77;110376;1261;19576;-48
2022/06/02 07:09:43;;;;;;;;;17.00;16.00;;;;;22.25;50.10;101016.55;110432;1260;19617;-50
2022/06/02 07:14:55;;;;;;;;;14.00;13.00;;;;;22.36;50.60;101013.20;110441;1260;23708;-50
2022/06/02 07:17:23;;;;;;;;;14.00;14.00;;;;;22.39;50.59;101016.69;110480;1260;20084;-49
2022/06/02 07:19:51;;;;;;;;;17.00;16.00;;;;;22.40;50.95;101009.23;110435;1260;20352;-49
2022/06/02 07:22:18;;;;;;;;;14.67;13.00;;;;;22.41;50.84;101016.84;110438;1261;19097;-50
2022/06/02 07:24:45;;;;;;;;;14.00;13.33;;;;;22.43;50.98;101016.23;110475;1259;23790;-51
2022/06/02 07:27:13;;;;;;;;;12.00;12.00;;;;;22.47;51.17;101018.35;110495;1260;20394;-50
2022/06/02 07:29:40;;;;;;;;;14.67;13.00;;;;;22.50;51.52;101015.19;110417;1259;19267;-50
2022/06/02 07:32:07;;;;;;;;;14.67;13.00;;;;;22.58;51.68;101018.23;110475;1260;19744;-49
2022/06/02 07:34:35;;;;;;;;;13.67;13.67;;;;;22.59;51.74;101018.42;110452;1261;20244;-50
2022/06/02 07:37:02;;;;;;;;;14.67;14.00;;;;;22.60;51.74;101021.30;110433;1261;19145;-49
2022/06/02 07:39:29;;;;;;;;;14.00;14.00;;;;;22.64;51.81;101025.65;110468;1261;19545;-50
2022/06/02 07:41:57;;;;;;;;;13.00;13.00;;;;;22.65;51.91;101022.83;110462;1261;20432;-49
2022/06/02 07:44:24;;;;;;;;;15.00;13.67;;;;;22.65;51.84;101025.55;110330;1261;19657;-49
2022/06/02 07:46:51;;;;;;;;;16.00;14.67;;;;;22.63;51.72;101030.89;110391;1260;19595;-50
2022/06/02 07:49:19;;;;;;;;;14.00;14.00;;;;;22.64;51.54;101034.27;110353;1260;20255;-50
2022/06/02 07:51:46;;;;;;;;;11.67;11.00;;;;;22.62;51.74;101038.01;110426;1259;19222;-50
2022/06/02 07:54:13;;;;;;;;;17.33;14.67;;;;;22.61;51.60;101040.30;110461;1261;24000;-54
2022/06/02 07:56:42;;;;;;;;;16.67;14.33;;;;;22.63;51.51;101039.83;110401;1260;21080;-50
2022/06/02 07:59:09;;;;;;;;;57.00;44.50;;;;;22.65;51.74;101040.67;110255;1259;23104;-48
2022/06/02 08:01:36;;;;;;;;;50.67;38.00;;;;;22.74;51.66;101045.74;110410;1259;19568;-49
2022/06/02 08:04:04;;;;;;;;;57.50;43.50;;;;;22.70;51.36;101049.80;110447;1259;22058;-52
2022/06/02 08:06:31;;;;;;;;;74.50;57.50;;;;;22.57;51.36;101058.98;110637;1259;19454;-50
2022/06/02 08:08:58;;;;;;;;;82.33;61.00;;;;;22.46;51.66;101063.77;110567;1258;28229;-49
2022/06/02 08:11:25;;;;;;;;;481.50;474.00;;;;;22.32;51.90;101068.11;110529;1258;20301;-51
2022/06/02 08:13:53;;;;;;;;;57.67;44.00;;;;;22.26;51.86;101067.61;110382;1259;24109;-51
2022/06/02 08:16:20;;;;;;;;;38.33;34.00;;;;;22.26;51.82;101076.17;110454;1258;19902;-51
2022/06/02 08:18:48;;;;;;;;;46.67;39.67;;;;;22.20;51.79;101075.59;110575;1259;20816;-51
2022/06/02 08:21:19;;;;;;;;;34.33;31.33;;;;;22.18;51.77;101078.52;110500;1258;19431;-50
2022/06/02 08:23:46;;;;;;;;;39.00;32.33;;;;;22.16;51.69;101078.23;110549;1258;23160;-49
2022/06/02 08:26:13;;;;;;;;;37.00;27.00;;;;;22.17;51.68;101079.77;110484;1258;20352;-49
2022/06/02 08:28:40;;;;;;;;;29.67;28.00;;;;;22.19;51.63;101082.80;110349;1259;19111;-50
2022/06/02 08:31:07;;;;;;;;;28.33;25.33;;;;;22.15;51.82;101087.96;110571;1258;19549;-51
2022/06/02 08:33:35;;;;;;;;;27.00;24.00;;;;;22.18;51.73;101090.21;110559;1259;20578;-48
2022/06/02 08:36:02;;;;;;;;;30.50;25.50;;;;;22.13;51.85;101092.05;110436;1258;25128;-50
2022/06/02 08:38:29;;;;;;;;;32.67;27.33;;;;;22.00;51.76;101091.67;110572;1258;19519;-52
2022/06/02 08:40:56;;;;;;;;;25.67;22.33;;;;;21.87;52.03;101089.70;110566;1259;20823;-50
2022/06/02 08:43:23;;;;;;;;;22.00;21.00;;;;;21.87;51.60;101094.24;110523;1258;25016;-51
2022/06/02 08:45:51;;;;;;;;;19.50;17.50;;;;;21.87;51.59;101093.29;110577;1259;19741;-49
2022/06/02 08:48:18;;;;;;;;;25.67;25.33;;;;;22.03;51.33;101097.48;110516;1258;22764;-49
2022/06/02 08:50:45;;;;;;;;;21.00;20.00;;;;;22.19;51.21;101095.55;110424;1259;19264;-49
2022/06/02 08:53:13;;;;;;;;;17.00;17.00;;;;;22.29;51.15;101096.66;110494;1259;23264;-55
2022/06/02 08:55:40;;;;;;;;;23.33;19.33;;;;;22.38;51.15;101099.98;110385;1258;20281;-50
2022/06/02 08:58:07;;;;;;;;;25.00;22.50;;;;;22.43;51.03;101104.00;110319;1259;21402;-49
2022/06/02 09:00:34;;;;;;;;;24.00;21.00;;;;;22.47;51.01;101104.24;110398;1259;19877;-50
2022/06/02 09:03:01;;;;;;;;;20.00;17.00;;;;;22.52;51.11;101108.08;110493;1258;20329;-48
2022/06/02 09:05:29;;;;;;;;;15.33;15.33;;;;;22.52;51.07;101105.48;110503;1259;26035;-48
2022/06/02 09:07:56;;;;;;;;;22.00;18.00;;;;;22.51;51.26;101106.45;110525;1259;20072;-51
2022/06/02 09:10:23;;;;;;;;;18.00;17.00;;;;;22.48;51.31;101105.91;110429;1260;20344;-50
2022/06/02 09:12:50;;;;;;;;;17.00;16.00;;;;;22.49;51.22;101107.36;110605;1258;19082;-51
2022/06/02 09:15:18;;;;;;;;;21.00;18.00;;;;;22.47;51.26;101109.91;110633;1258;23358;-51
2022/06/02 09:17:46;;;;;;;;;16.00;16.00;;;;;22.46;51.26;101114.52;110565;1258;21832;-50
2022/06/02 09:20:14;;;;;;;;;13.50;13.00;;;;;22.46;51.42;101113.64;110546;1259;19320;-50
2022/06/02 09:22:41;;;;;;;;;18.00;15.00;;;;;22.45;51.31;101112.66;110455;1258;19595;-50
2022/06/02 09:25:08;;;;;;;;;17.00;15.00;;;;;22.45;51.21;101115.77;110491;1259;21594;-50
2022/06/02 09:27:36;;;;;;;;;17.00;16.00;;;;;22.44;51.40;101113.15;110529;1259;19245;-49
2022/06/02 09:30:03;;;;;;;;;18.00;17.00;;;;;22.44;51.30;101118.67;110569;1259;23623;-51
2022/06/02 09:32:30;;;;;;;;;16.33;16.00;;;;;22.44;51.24;101118.81;110378;1260;20568;-50
2022/06/02 09:34:57;;;;;;;;;21.50;17.50;;;;;22.44;51.30;101123.36;110557;1258;19298;-51
2022/06/02 09:37:25;;;;;;;;;18.00;17.00;;;;;22.46;51.25;101125.17;110481;1261;19810;-51
2022/06/02 09:39:52;;;;;;;;;15.00;15.00;;;;;22.46;51.20;101125.61;110588;1258;20523;-51
2022/06/02 09:42:19;;;;;;;;;14.33;13.33;;;;;22.47;51.08;101129.59;110616;1258;19289;-50
2022/06/02 09:44:46;;;;;;;;;17.33;15.00;;;;;22.47;51.10;101130.13;110615;1259;19584;-51
2022/06/02 09:47:14;;;;;;;;;22.00;17.00;;;;;22.48;50.97;101135.66;110596;1259;21361;-49
2022/06/02 09:49:41;;;;;;;;;18.00;16.67;;;;;22.48;50.99;101133.52;110465;1260;19146;-48
2022/06/02 09:52:08;;;;;;;;;17.33;16.67;;;;;22.48;51.00;101139.61;110502;1258;19567;-50
2022/06/02 09:54:35;;;;;;;;;18.00;15.00;;;;;22.47;51.04;101141.18;110651;1258;21042;-50
2022/06/02 09:57:02;;;;;;;;;15.33;14.00;;;;;22.48;50.90;101148.02;110575;1258;19372;-52
2022/06/02 09:59:30;;;;;;;;;19.00;15.00;;;;;22.48;50.90;101150.23;110597;1258;19732;-46
2022/06/02 10:01:57;;;;;;;;;14.67;13.67;;;;;22.47;51.00;101148.33;110580;1258;23032;-50
2022/06/02 10:04:24;;;;;;;;;14.00;14.00;;;;;22.46;50.90;101151.95;110475;1259;21850;-50
2022/06/02 10:06:52;;;;;;;;;17.00;16.33;;;;;22.44;50.97;101153.91;110481;1261;23022;-51
2022/06/02 10:09:20;;;;;;;;;12.67;12.00;;;;;22.44;50.79;101152.30;110505;1260;21123;-51
2022/06/02 10:11:47;;;;;;;;;13.00;13.00;;;;;22.43;50.78;101154.39;110409;1260;19617;-53
2022/06/02 10:14:15;;;;;;;;;12.67;12.67;;;;;22.45;50.66;101156.19;110438;1260;19496;-51
2022/06/02 10:16:43;;;;;;;;;16.00;13.33;;;;;22.45;50.69;101155.10;110443;1260;20402;-51
2022/06/02 10:19:10;;;;;;;;;14.00;13.33;;;;;22.45;50.71;101155.27;110463;1260;19615;-49
2022/06/02 10:21:38;;;;;;;;;14.00;13.00;;;;;22.46;50.62;101159.40;110475;1261;19615;-51
2022/06/02 10:24:06;;;;;;;;;14.00;13.00;;;;;22.46;50.69;101161.71;110487;1260;20345;-51
2022/06/02 10:26:33;;;;;;;;;14.00;13.00;;;;;22.46;50.48;101159.39;110473;1261;19306;-51
2022/06/02 10:29:00;;;;;;;;;13.00;11.00;;;;;22.46;50.55;101158.80;110445;1260;21012;-50
2022/06/02 10:31:27;;;;;;;;;13.00;11.33;;;;;22.46;50.53;101159.70;110467;1260;21727;-50
2022/06/02 10:33:55;;;;;;;;;14.00;13.67;;;;;22.46;50.62;101158.30;110441;1261;19331;-53
2022/06/02 10:36:22;;;;;;;;;16.00;14.00;;;;;22.47;50.31;101159.20;110545;1259;21752;-50
2022/06/02 10:38:51;;;;;;;;;12.33;10.00;;;;;22.47;50.41;101159.18;110452;1259;21469;-50
2022/06/02 10:41:18;;;;;;;;;13.67;13.33;;;;;22.48;50.20;101156.77;110419;1260;20320;-51
2022/06/02 10:43:45;;;;;;;;;14.67;13.67;;;;;22.47;50.39;101154.50;110435;1259;19706;-49
2022/06/02 10:46:13;;;;;;;;;13.00;11.00;;;;;22.47;50.21;101153.38;110448;1261;22632;-50
2022/06/02 10:48:40;;;;;;;;;14.67;13.67;;;;;22.47;50.24;101155.27;110483;1260;24322;-51
2022/06/02 10:51:07;;;;;;;;;13.00;11.00;;;;;22.47;50.23;101156.70;110466;1259;19547;-50
2022/06/02 10:53:34;;;;;;;;;11.00;11.00;;;;;22.47;50.15;101154.36;110475;1259;20314;-51
2022/06/02 10:56:02;;;;;;;;;13.00;13.00;;;;;22.47;50.22;101150.34;110446;1260;23058;-50
2022/06/02 10:58:29;;;;;;;;;13.00;12.00;;;;;22.48;50.21;101150.45;110435;1261;19542;-51
2022/06/02 11:00:56;;;;;;;;;12.67;11.67;;;;;22.47;50.28;101152.48;110331;1261;23262;-50
2022/06/02 11:03:23;;;;;;;;;11.33;10.33;;;;;22.47;49.92;101151.95;110367;1260;19159;-50
2022/06/02 11:05:51;;;;;;;;;10.67;9.00;;;;;22.50;50.05;101153.02;110423;1260;19406;-49
2022/06/02 11:08:18;;;;;;;;;12.00;10.67;;;;;22.56;50.18;101155.41;110432;1260;23155;-51
2022/06/02 11:10:45;;;;;;;;;13.00;12.00;;;;;22.53;48.67;101150.34;110413;1261;19451;-51
2022/06/02 11:13:13;;;;;;;;;14.00;11.00;;;;;22.51;48.06;101155.44;110442;1260;19660;-51